sensor_id;sensor_type;location;lat;lon;timestamp;temperature;humidity
54898;DHT22;40800;52.704;6.398;2022-11-23T00:02:23;8.20;99.90
54898;DHT22;40800;52.704;6.398;2022-11-23T00:04:49;8.60;99.90
54898;DHT22;40800;52.704;6.398;2022-11-23T00:07:14;8.50;99.90
54898;DHT22;40800;52.704;6.398;2022-11-23T00:09:40;8.10;99.90
54898;DHT22;40800;52.704;6.398;2022-11-23T00:12:06;8.50;99.90
54898;DHT22;40800;52.704;6.398;2022-11-23T00:14:31;8.30;99.90
54898;DHT22;40800;52.704;6.398;2022-11-23T00:16:57;8.20;99.90
54898;DHT22;40800;52.704;6.398;2022-11-23T00:19:22;8.20;99.90
54898;DHT22;40800;52.704;6.398;2022-11-23T00:21:48;8.30;99.90
54898;DHT22;40800;52.704;6.398;2022-11-23T00:24:13;8.30;99.90
54898;DHT22;40800;52.704;6.398;2022-11-23T00:26:39;8.30;99.90
54898;DHT22;40800;52.704;6.398;2022-11-23T00:29:04;8.10;99.90
54898;DHT22;40800;52.704;6.398;2022-11-23T00:31:30;8.10;99.90
54898;DHT22;40800;52.704;6.398;2022-11-23T00:33:56;8.40;99.90
54898;DHT22;40800;52.704;6.398;2022-11-23T00:36:23;8.10;99.90
54898;DHT22;40800;52.704;6.398;2022-11-23T00:38:49;8.50;99.90
54898;DHT22;40800;52.704;6.398;2022-11-23T00:41:18;8.10;99.90
54898;DHT22;40800;52.704;6.398;2022-11-23T00:43:44;8.50;99.90
54898;DHT22;40800;52.704;6.398;2022-11-23T00:46:18;8.50;99.90
54898;DHT22;40800;52.704;6.398;2022-11-23T00:48:46;8.10;99.90
54898;DHT22;40800;52.704;6.398;2022-11-23T00:51:14;8.00;99.90
54898;DHT22;40800;52.704;6.398;2022-11-23T00:53:40;8.10;99.90
54898;DHT22;40800;52.704;6.398;2022-11-23T00:56:06;8.00;99.90
54898;DHT22;40800;52.704;6.398;2022-11-23T00:58:32;8.10;99.90
54898;DHT22;40800;52.704;6.398;2022-11-23T01:03:29;8.00;99.90
54898;DHT22;40800;52.704;6.398;2022-11-23T01:06:00;8.10;99.90
54898;DHT22;40800;52.704;6.398;2022-11-23T01:08:25;8.10;99.90
54898;DHT22;40800;52.704;6.398;2022-11-23T01:10:51;8.10;99.90
54898;DHT22;40800;52.704;6.398;2022-11-23T01:13:16;8.10;99.90
54898;DHT22;40800;52.704;6.398;2022-11-23T01:15:48;8.00;99.90
54898;DHT22;40800;52.704;6.398;2022-11-23T01:18:14;8.60;99.90
54898;DHT22;40800;52.704;6.398;2022-11-23T01:20:40;8.20;99.90
54898;DHT22;40800;52.704;6.398;2022-11-23T01:23:05;8.20;99.90
54898;DHT22;40800;52.704;6.398;2022-11-23T01:25:31;8.60;99.90
54898;DHT22;40800;52.704;6.398;2022-11-23T01:27:56;8.30;99.90
54898;DHT22;40800;52.704;6.398;2022-11-23T01:30:22;8.60;99.90
54898;DHT22;40800;52.704;6.398;2022-11-23T01:32:47;8.20;99.90
54898;DHT22;40800;52.704;6.398;2022-11-23T01:35:13;8.40;99.90
54898;DHT22;40800;52.704;6.398;2022-11-23T01:37:38;8.20;99.90
54898;DHT22;40800;52.704;6.398;2022-11-23T01:40:04;8.50;99.90
54898;DHT22;40800;52.704;6.398;2022-11-23T01:42:54;8.40;99.90
54898;DHT22;40800;52.704;6.398;2022-11-23T01:45:33;8.10;99.90
54898;DHT22;40800;52.704;6.398;2022-11-23T01:48:02;8.50;99.90
54898;DHT22;40800;52.704;6.398;2022-11-23T01:50:27;8.50;99.90
54898;DHT22;40800;52.704;6.398;2022-11-23T01:52:53;8.20;99.90
54898;DHT22;40800;52.704;6.398;2022-11-23T01:55:19;8.10;99.90
54898;DHT22;40800;52.704;6.398;2022-11-23T01:57:45;8.50;99.90
54898;DHT22;40800;52.704;6.398;2022-11-23T02:00:11;8.10;99.90
54898;DHT22;40800;52.704;6.398;2022-11-23T02:02:41;8.20;99.90
54898;DHT22;40800;52.704;6.398;2022-11-23T02:05:08;8.10;99.90
54898;DHT22;40800;52.704;6.398;2022-11-23T02:07:35;8.20;99.90
54898;DHT22;40800;52.704;6.398;2022-11-23T02:10:01;8.50;99.90
54898;DHT22;40800;52.704;6.398;2022-11-23T02:12:26;8.10;99.90
54898;DHT22;40800;52.704;6.398;2022-11-23T02:14:53;8.50;99.90
54898;DHT22;40800;52.704;6.398;2022-11-23T02:17:18;8.50;99.90
54898;DHT22;40800;52.704;6.398;2022-11-23T02:20:12;8.10;99.90
54898;DHT22;40800;52.704;6.398;2022-11-23T02:28:17;8.20;99.90
54898;DHT22;40800;52.704;6.398;2022-11-23T02:30:45;8.20;99.90
54898;DHT22;40800;52.704;6.398;2022-11-23T02:33:12;8.20;99.90
54898;DHT22;40800;52.704;6.398;2022-11-23T02:35:55;8.20;99.90
54898;DHT22;40800;52.704;6.398;2022-11-23T02:38:22;8.50;99.90
54898;DHT22;40800;52.704;6.398;2022-11-23T02:40:48;8.30;99.90
54898;DHT22;40800;52.704;6.398;2022-11-23T02:43:14;8.40;99.90
54898;DHT22;40800;52.704;6.398;2022-11-23T02:46:06;8.40;99.90
54898;DHT22;40800;52.704;6.398;2022-11-23T02:48:32;8.20;99.90
54898;DHT22;40800;52.704;6.398;2022-11-23T02:50:57;8.30;99.90
54898;DHT22;40800;52.704;6.398;2022-11-23T02:53:23;8.30;99.90
54898;DHT22;40800;52.704;6.398;2022-11-23T02:55:48;8.50;99.90
54898;DHT22;40800;52.704;6.398;2022-11-23T02:58:14;8.30;99.90
54898;DHT22;40800;52.704;6.398;2022-11-23T03:00:39;8.50;99.90
54898;DHT22;40800;52.704;6.398;2022-11-23T03:03:05;8.30;99.90
54898;DHT22;40800;52.704;6.398;2022-11-23T03:05:31;8.60;99.90
54898;DHT22;40800;52.704;6.398;2022-11-23T03:07:57;8.60;99.90
54898;DHT22;40800;52.704;6.398;2022-11-23T03:10:22;8.50;99.90
54898;DHT22;40800;52.704;6.398;2022-11-23T03:12:48;8.40;99.90
54898;DHT22;40800;52.704;6.398;2022-11-23T03:15:13;8.50;99.90
54898;DHT22;40800;52.704;6.398;2022-11-23T03:17:39;8.40;99.90
54898;DHT22;40800;52.704;6.398;2022-11-23T03:20:05;8.30;99.90
54898;DHT22;40800;52.704;6.398;2022-11-23T03:22:31;8.40;99.90
54898;DHT22;40800;52.704;6.398;2022-11-23T03:24:56;8.60;99.90
54898;DHT22;40800;52.704;6.398;2022-11-23T03:27:22;8.60;99.90
54898;DHT22;40800;52.704;6.398;2022-11-23T03:29:47;8.70;99.90
54898;DHT22;40800;52.704;6.398;2022-11-23T03:32:13;8.70;99.90
54898;DHT22;40800;52.704;6.398;2022-11-23T03:34:38;8.70;99.90
54898;DHT22;40800;52.704;6.398;2022-11-23T03:37:04;8.50;99.90
54898;DHT22;40800;52.704;6.398;2022-11-23T03:39:29;8.30;99.90
54898;DHT22;40800;52.704;6.398;2022-11-23T03:41:55;8.60;99.90
54898;DHT22;40800;52.704;6.398;2022-11-23T03:44:21;8.70;99.90
54898;DHT22;40800;52.704;6.398;2022-11-23T03:46:46;8.70;99.90
54898;DHT22;40800;52.704;6.398;2022-11-23T03:49:12;8.70;99.90
54898;DHT22;40800;52.704;6.398;2022-11-23T03:51:37;8.50;99.90
54898;DHT22;40800;52.704;6.398;2022-11-23T03:54:03;8.50;99.90
54898;DHT22;40800;52.704;6.398;2022-11-23T03:56:29;8.70;99.90
54898;DHT22;40800;52.704;6.398;2022-11-23T03:58:54;8.20;99.90
54898;DHT22;40800;52.704;6.398;2022-11-23T04:01:20;8.20;99.90
54898;DHT22;40800;52.704;6.398;2022-11-23T04:03:45;8.50;99.90
54898;DHT22;40800;52.704;6.398;2022-11-23T04:06:11;8.30;99.90
54898;DHT22;40800;52.704;6.398;2022-11-23T04:08:36;8.20;99.90
54898;DHT22;40800;52.704;6.398;2022-11-23T04:11:02;8.30;99.90
54898;DHT22;40800;52.704;6.398;2022-11-23T04:13:27;8.30;99.90
54898;DHT22;40800;52.704;6.398;2022-11-23T04:15:53;8.20;99.90
54898;DHT22;40800;52.704;6.398;2022-11-23T04:18:19;8.50;99.90
54898;DHT22;40800;52.704;6.398;2022-11-23T04:20:44;8.60;99.90
54898;DHT22;40800;52.704;6.398;2022-11-23T04:23:10;8.50;99.90
54898;DHT22;40800;52.704;6.398;2022-11-23T04:25:35;8.50;99.90
54898;DHT22;40800;52.704;6.398;2022-11-23T04:28:01;8.50;99.90
54898;DHT22;40800;52.704;6.398;2022-11-23T04:30:26;8.50;99.90
54898;DHT22;40800;52.704;6.398;2022-11-23T04:32:52;8.20;99.90
54898;DHT22;40800;52.704;6.398;2022-11-23T04:35:17;8.50;99.90
54898;DHT22;40800;52.704;6.398;2022-11-23T04:37:44;8.20;99.90
54898;DHT22;40800;52.704;6.398;2022-11-23T04:40:09;8.30;99.90
54898;DHT22;40800;52.704;6.398;2022-11-23T04:42:35;8.30;99.90
54898;DHT22;40800;52.704;6.398;2022-11-23T04:45:00;8.60;99.90
54898;DHT22;40800;52.704;6.398;2022-11-23T04:47:26;8.50;99.90
54898;DHT22;40800;52.704;6.398;2022-11-23T04:49:51;8.70;99.90
54898;DHT22;40800;52.704;6.398;2022-11-23T04:52:17;8.30;99.90
54898;DHT22;40800;52.704;6.398;2022-11-23T04:54:42;8.60;99.90
54898;DHT22;40800;52.704;6.398;2022-11-23T04:57:08;8.50;99.90
54898;DHT22;40800;52.704;6.398;2022-11-23T04:59:34;8.60;99.90
54898;DHT22;40800;52.704;6.398;2022-11-23T05:01:59;8.50;99.90
54898;DHT22;40800;52.704;6.398;2022-11-23T05:04:25;8.50;99.90
54898;DHT22;40800;52.704;6.398;2022-11-23T05:06:50;8.70;99.90
54898;DHT22;40800;52.704;6.398;2022-11-23T05:09:16;8.50;99.90
54898;DHT22;40800;52.704;6.398;2022-11-23T05:11:41;8.00;99.90
54898;DHT22;40800;52.704;6.398;2022-11-23T05:14:07;7.90;99.90
54898;DHT22;40800;52.704;6.398;2022-11-23T05:16:33;8.50;99.90
54898;DHT22;40800;52.704;6.398;2022-11-23T05:18:59;8.00;99.90
54898;DHT22;40800;52.704;6.398;2022-11-23T05:21:24;8.10;99.90
54898;DHT22;40800;52.704;6.398;2022-11-23T05:23:50;8.40;99.90
54898;DHT22;40800;52.704;6.398;2022-11-23T05:26:15;7.80;99.90
54898;DHT22;40800;52.704;6.398;2022-11-23T05:28:41;8.00;99.90
54898;DHT22;40800;52.704;6.398;2022-11-23T05:31:07;8.00;99.90
54898;DHT22;40800;52.704;6.398;2022-11-23T05:33:33;8.20;99.90
54898;DHT22;40800;52.704;6.398;2022-11-23T05:35:58;8.10;99.90
54898;DHT22;40800;52.704;6.398;2022-11-23T05:38:24;8.10;99.90
54898;DHT22;40800;52.704;6.398;2022-11-23T05:40:49;8.00;99.90
54898;DHT22;40800;52.704;6.398;2022-11-23T05:43:15;7.80;99.90
54898;DHT22;40800;52.704;6.398;2022-11-23T05:45:40;8.20;99.90
54898;DHT22;40800;52.704;6.398;2022-11-23T05:48:06;8.10;99.90
54898;DHT22;40800;52.704;6.398;2022-11-23T05:50:31;7.90;99.90
54898;DHT22;40800;52.704;6.398;2022-11-23T05:52:57;7.80;99.90
54898;DHT22;40800;52.704;6.398;2022-11-23T05:55:24;8.10;99.90
54898;DHT22;40800;52.704;6.398;2022-11-23T05:57:49;7.60;99.90
54898;DHT22;40800;52.704;6.398;2022-11-23T06:00:15;7.80;99.90
54898;DHT22;40800;52.704;6.398;2022-11-23T06:02:41;8.10;99.90
54898;DHT22;40800;52.704;6.398;2022-11-23T06:05:07;8.10;99.90
54898;DHT22;40800;52.704;6.398;2022-11-23T06:07:33;7.80;99.90
54898;DHT22;40800;52.704;6.398;2022-11-23T06:10:00;7.60;99.90
54898;DHT22;40800;52.704;6.398;2022-11-23T06:12:29;7.60;99.90
54898;DHT22;40800;52.704;6.398;2022-11-23T06:14:54;7.90;99.90
54898;DHT22;40800;52.704;6.398;2022-11-23T06:17:20;7.40;99.90
54898;DHT22;40800;52.704;6.398;2022-11-23T06:19:46;7.80;99.90
54898;DHT22;40800;52.704;6.398;2022-11-23T06:22:12;7.70;99.90
54898;DHT22;40800;52.704;6.398;2022-11-23T06:24:37;7.60;99.90
54898;DHT22;40800;52.704;6.398;2022-11-23T06:27:03;7.20;99.90
54898;DHT22;40800;52.704;6.398;2022-11-23T06:29:28;7.60;99.90
54898;DHT22;40800;52.704;6.398;2022-11-23T06:31:54;7.60;99.90
54898;DHT22;40800;52.704;6.398;2022-11-23T06:34:20;7.30;99.90
54898;DHT22;40800;52.704;6.398;2022-11-23T06:36:45;7.30;99.90
54898;DHT22;40800;52.704;6.398;2022-11-23T06:39:11;7.30;99.90
54898;DHT22;40800;52.704;6.398;2022-11-23T06:41:37;7.40;99.90
54898;DHT22;40800;52.704;6.398;2022-11-23T06:44:04;7.70;99.90
54898;DHT22;40800;52.704;6.398;2022-11-23T06:46:29;7.90;99.90
54898;DHT22;40800;52.704;6.398;2022-11-23T06:48:55;7.70;99.90
54898;DHT22;40800;52.704;6.398;2022-11-23T06:51:20;7.40;99.90
54898;DHT22;40800;52.704;6.398;2022-11-23T06:53:46;7.80;99.90
54898;DHT22;40800;52.704;6.398;2022-11-23T06:56:12;7.60;99.90
54898;DHT22;40800;52.704;6.398;2022-11-23T06:58:37;7.70;99.90
54898;DHT22;40800;52.704;6.398;2022-11-23T07:01:05;8.70;99.90
54898;DHT22;40800;52.704;6.398;2022-11-23T07:03:32;8.00;99.90
54898;DHT22;40800;52.704;6.398;2022-11-23T07:05:57;7.50;99.90
54898;DHT22;40800;52.704;6.398;2022-11-23T07:08:23;7.60;99.90
54898;DHT22;40800;52.704;6.398;2022-11-23T07:10:48;7.80;99.90
54898;DHT22;40800;52.704;6.398;2022-11-23T07:13:14;8.00;99.90
54898;DHT22;40800;52.704;6.398;2022-11-23T07:15:41;7.80;99.90
54898;DHT22;40800;52.704;6.398;2022-11-23T07:18:07;8.20;99.90
54898;DHT22;40800;52.704;6.398;2022-11-23T07:20:34;7.80;99.90
54898;DHT22;40800;52.704;6.398;2022-11-23T07:23:04;8.00;99.90
54898;DHT22;40800;52.704;6.398;2022-11-23T07:25:32;7.80;99.90
54898;DHT22;40800;52.704;6.398;2022-11-23T07:27:59;7.70;99.90
54898;DHT22;40800;52.704;6.398;2022-11-23T07:30:26;7.80;99.90
54898;DHT22;40800;52.704;6.398;2022-11-23T07:32:52;7.90;99.90
54898;DHT22;40800;52.704;6.398;2022-11-23T07:35:21;8.10;99.90
54898;DHT22;40800;52.704;6.398;2022-11-23T07:37:47;7.80;99.90
54898;DHT22;40800;52.704;6.398;2022-11-23T07:40:13;8.30;99.90
54898;DHT22;40800;52.704;6.398;2022-11-23T07:42:38;8.30;99.90
54898;DHT22;40800;52.704;6.398;2022-11-23T07:45:05;8.20;99.90
54898;DHT22;40800;52.704;6.398;2022-11-23T07:47:31;7.80;99.90
54898;DHT22;40800;52.704;6.398;2022-11-23T07:49:56;7.90;99.90
54898;DHT22;40800;52.704;6.398;2022-11-23T07:52:22;8.20;99.90
54898;DHT22;40800;52.704;6.398;2022-11-23T07:54:48;7.80;99.90
54898;DHT22;40800;52.704;6.398;2022-11-23T07:57:13;8.40;99.90
54898;DHT22;40800;52.704;6.398;2022-11-23T07:59:39;8.40;99.90
54898;DHT22;40800;52.704;6.398;2022-11-23T08:02:05;8.00;99.90
54898;DHT22;40800;52.704;6.398;2022-11-23T08:04:30;8.00;99.90
54898;DHT22;40800;52.704;6.398;2022-11-23T08:06:56;8.00;99.90
54898;DHT22;40800;52.704;6.398;2022-11-23T08:09:22;8.60;99.90
54898;DHT22;40800;52.704;6.398;2022-11-23T08:11:47;8.60;99.90
54898;DHT22;40800;52.704;6.398;2022-11-23T08:14:13;8.60;99.90
54898;DHT22;40800;52.704;6.398;2022-11-23T08:16:39;8.20;99.90
54898;DHT22;40800;52.704;6.398;2022-11-23T08:19:04;8.30;99.90
54898;DHT22;40800;52.704;6.398;2022-11-23T08:21:30;8.10;99.90
54898;DHT22;40800;52.704;6.398;2022-11-23T08:23:55;8.10;99.90
54898;DHT22;40800;52.704;6.398;2022-11-23T08:26:21;8.70;99.90
54898;DHT22;40800;52.704;6.398;2022-11-23T08:28:47;8.20;99.90
54898;DHT22;40800;52.704;6.398;2022-11-23T08:31:13;8.80;99.90
54898;DHT22;40800;52.704;6.398;2022-11-23T08:33:39;8.40;99.90
54898;DHT22;40800;52.704;6.398;2022-11-23T08:36:06;8.50;99.90
54898;DHT22;40800;52.704;6.398;2022-11-23T08:38:34;8.60;99.90
54898;DHT22;40800;52.704;6.398;2022-11-23T08:41:01;8.60;99.90
54898;DHT22;40800;52.704;6.398;2022-11-23T08:43:27;8.10;99.90
54898;DHT22;40800;52.704;6.398;2022-11-23T08:45:54;8.40;99.90
54898;DHT22;40800;52.704;6.398;2022-11-23T08:48:20;8.30;99.90
54898;DHT22;40800;52.704;6.398;2022-11-23T08:50:46;8.10;99.90
54898;DHT22;40800;52.704;6.398;2022-11-23T08:53:11;8.60;99.90
54898;DHT22;40800;52.704;6.398;2022-11-23T08:55:37;8.60;99.90
54898;DHT22;40800;52.704;6.398;2022-11-23T08:58:03;8.30;99.90
54898;DHT22;40800;52.704;6.398;2022-11-23T09:00:28;8.90;99.90
54898;DHT22;40800;52.704;6.398;2022-11-23T09:02:55;8.60;99.90
54898;DHT22;40800;52.704;6.398;2022-11-23T09:05:25;8.50;99.90
54898;DHT22;40800;52.704;6.398;2022-11-23T09:07:51;9.00;99.90
54898;DHT22;40800;52.704;6.398;2022-11-23T09:10:17;8.60;99.90
54898;DHT22;40800;52.704;6.398;2022-11-23T09:12:43;9.00;99.90
54898;DHT22;40800;52.704;6.398;2022-11-23T09:15:09;8.40;99.90
54898;DHT22;40800;52.704;6.398;2022-11-23T09:17:35;8.60;99.90
54898;DHT22;40800;52.704;6.398;2022-11-23T09:20:00;8.70;99.90
54898;DHT22;40800;52.704;6.398;2022-11-23T09:22:26;8.80;99.90
54898;DHT22;40800;52.704;6.398;2022-11-23T09:24:52;8.50;99.90
54898;DHT22;40800;52.704;6.398;2022-11-23T09:27:18;9.10;99.90
54898;DHT22;40800;52.704;6.398;2022-11-23T09:29:44;9.10;99.90
54898;DHT22;40800;52.704;6.398;2022-11-23T09:32:10;9.20;99.90
54898;DHT22;40800;52.704;6.398;2022-11-23T09:34:36;8.60;99.90
54898;DHT22;40800;52.704;6.398;2022-11-23T09:37:01;9.20;99.90
54898;DHT22;40800;52.704;6.398;2022-11-23T09:39:27;8.60;99.90
54898;DHT22;40800;52.704;6.398;2022-11-23T09:47:56;8.90;99.90
54898;DHT22;40800;52.704;6.398;2022-11-23T09:53:24;8.90;99.90
54898;DHT22;40800;52.704;6.398;2022-11-23T09:55:55;8.50;99.90
54898;DHT22;40800;52.704;6.398;2022-11-23T09:58:24;8.50;99.90
54898;DHT22;40800;52.704;6.398;2022-11-23T10:03:28;9.20;99.90
54898;DHT22;40800;52.704;6.398;2022-11-23T10:06:17;8.90;99.90
54898;DHT22;40800;52.704;6.398;2022-11-23T10:14:47;9.10;99.90
54898;DHT22;40800;52.704;6.398;2022-11-23T10:23:01;9.20;99.90
54898;DHT22;40800;52.704;6.398;2022-11-23T10:25:47;8.90;99.90
54898;DHT22;40800;52.704;6.398;2022-11-23T10:28:16;8.80;99.90
54898;DHT22;40800;52.704;6.398;2022-11-23T10:30:50;9.00;99.90
54898;DHT22;40800;52.704;6.398;2022-11-23T10:35:51;9.30;99.90
54898;DHT22;40800;52.704;6.398;2022-11-23T10:38:19;9.30;99.90
54898;DHT22;40800;52.704;6.398;2022-11-23T10:41:04;9.00;99.90
54898;DHT22;40800;52.704;6.398;2022-11-23T10:43:58;8.90;99.90
54898;DHT22;40800;52.704;6.398;2022-11-23T10:46:27;9.50;99.90
54898;DHT22;40800;52.704;6.398;2022-11-23T10:48:54;9.90;99.90
54898;DHT22;40800;52.704;6.398;2022-11-23T10:51:27;10.30;99.90
54898;DHT22;40800;52.704;6.398;2022-11-23T10:54:00;10.00;99.90
54898;DHT22;40800;52.704;6.398;2022-11-23T10:56:27;10.00;99.90
54898;DHT22;40800;52.704;6.398;2022-11-23T10:58:54;10.20;99.90
54898;DHT22;40800;52.704;6.398;2022-11-23T11:01:22;10.40;99.90
54898;DHT22;40800;52.704;6.398;2022-11-23T11:03:53;10.40;99.90
54898;DHT22;40800;52.704;6.398;2022-11-23T11:06:29;10.60;99.90
54898;DHT22;40800;52.704;6.398;2022-11-23T11:08:57;10.90;99.90
54898;DHT22;40800;52.704;6.398;2022-11-23T11:11:28;11.30;99.90
54898;DHT22;40800;52.704;6.398;2022-11-23T11:16:32;11.60;99.90
54898;DHT22;40800;52.704;6.398;2022-11-23T11:18:59;11.40;99.90
54898;DHT22;40800;52.704;6.398;2022-11-23T11:21:44;11.50;99.90
54898;DHT22;40800;52.704;6.398;2022-11-23T11:24:24;11.80;99.90
54898;DHT22;40800;52.704;6.398;2022-11-23T11:26:56;11.80;99.90
54898;DHT22;40800;52.704;6.398;2022-11-23T11:29:38;11.70;99.90
54898;DHT22;40800;52.704;6.398;2022-11-23T11:32:20;11.50;99.90
54898;DHT22;40800;52.704;6.398;2022-11-23T11:35:19;11.80;99.90
54898;DHT22;40800;52.704;6.398;2022-11-23T11:37:50;11.80;99.90
54898;DHT22;40800;52.704;6.398;2022-11-23T11:45:47;12.00;99.90
54898;DHT22;40800;52.704;6.398;2022-11-23T11:48:19;11.90;99.90
54898;DHT22;40800;52.704;6.398;2022-11-23T11:50:58;12.10;99.90
54898;DHT22;40800;52.704;6.398;2022-11-23T11:53:41;12.10;99.90
54898;DHT22;40800;52.704;6.398;2022-11-23T11:58:43;12.50;99.90
54898;DHT22;40800;52.704;6.398;2022-11-23T12:03:53;12.60;99.90
54898;DHT22;40800;52.704;6.398;2022-11-23T12:06:27;12.70;99.90
54898;DHT22;40800;52.704;6.398;2022-11-23T12:11:36;12.50;99.90
54898;DHT22;40800;52.704;6.398;2022-11-23T12:14:03;12.60;99.90
54898;DHT22;40800;52.704;6.398;2022-11-23T12:22:58;12.60;99.90
54898;DHT22;40800;52.704;6.398;2022-11-23T12:25:33;12.50;99.90
54898;DHT22;40800;52.704;6.398;2022-11-23T12:39:08;12.70;99.90
54898;DHT22;40800;52.704;6.398;2022-11-23T12:47:07;12.40;99.90
54898;DHT22;40800;52.704;6.398;2022-11-23T12:49:48;12.60;99.90
54898;DHT22;40800;52.704;6.398;2022-11-23T12:55:32;12.50;99.90
54898;DHT22;40800;52.704;6.398;2022-11-23T13:00:47;12.80;99.90
54898;DHT22;40800;52.704;6.398;2022-11-23T13:04:37;12.80;99.90
54898;DHT22;40800;52.704;6.398;2022-11-23T13:09:46;13.30;99.90
54898;DHT22;40800;52.704;6.398;2022-11-23T13:21:11;13.70;99.90
54898;DHT22;40800;52.704;6.398;2022-11-23T13:23:41;13.40;99.90
54898;DHT22;40800;52.704;6.398;2022-11-23T13:26:19;13.40;99.90
54898;DHT22;40800;52.704;6.398;2022-11-23T13:28:47;13.50;99.90
54898;DHT22;40800;52.704;6.398;2022-11-23T13:33:43;13.60;99.90
54898;DHT22;40800;52.704;6.398;2022-11-23T13:38:55;13.50;99.90
54898;DHT22;40800;52.704;6.398;2022-11-23T13:43:57;13.40;99.90
54898;DHT22;40800;52.704;6.398;2022-11-23T13:46:24;13.30;99.90
54898;DHT22;40800;52.704;6.398;2022-11-23T13:48:57;13.30;99.90
54898;DHT22;40800;52.704;6.398;2022-11-23T13:51:27;13.30;99.90
54898;DHT22;40800;52.704;6.398;2022-11-23T13:53:58;13.50;99.90
54898;DHT22;40800;52.704;6.398;2022-11-23T13:56:41;12.80;99.90
54898;DHT22;40800;52.704;6.398;2022-11-23T14:07:31;12.50;99.90
54898;DHT22;40800;52.704;6.398;2022-11-23T14:10:16;12.30;99.90
54898;DHT22;40800;52.704;6.398;2022-11-23T14:12:49;12.40;99.90
54898;DHT22;40800;52.704;6.398;2022-11-23T14:15:22;12.10;99.90
54898;DHT22;40800;52.704;6.398;2022-11-23T14:34:31;11.80;99.90
54898;DHT22;40800;52.704;6.398;2022-11-23T14:39:51;11.60;99.90
54898;DHT22;40800;52.704;6.398;2022-11-23T14:42:21;11.40;99.90
54898;DHT22;40800;52.704;6.398;2022-11-23T14:44:48;11.30;99.90
54898;DHT22;40800;52.704;6.398;2022-11-23T14:47:30;11.20;99.90
54898;DHT22;40800;52.704;6.398;2022-11-23T14:49:57;10.90;99.90
54898;DHT22;40800;52.704;6.398;2022-11-23T14:52:28;10.90;99.90
54898;DHT22;40800;52.704;6.398;2022-11-23T14:54:57;10.90;99.90
54898;DHT22;40800;52.704;6.398;2022-11-23T14:57:27;10.70;99.90
54898;DHT22;40800;52.704;6.398;2022-11-23T14:59:58;10.60;99.90
54898;DHT22;40800;52.704;6.398;2022-11-23T15:02:34;10.60;99.90
54898;DHT22;40800;52.704;6.398;2022-11-23T15:05:05;10.50;99.90
54898;DHT22;40800;52.704;6.398;2022-11-23T15:07:55;10.40;99.90
54898;DHT22;40800;52.704;6.398;2022-11-23T15:12:50;10.30;99.90
54898;DHT22;40800;52.704;6.398;2022-11-23T15:15:32;10.50;99.90
54898;DHT22;40800;52.704;6.398;2022-11-23T15:18:02;10.60;99.90
54898;DHT22;40800;52.704;6.398;2022-11-23T15:20:33;10.60;99.90
54898;DHT22;40800;52.704;6.398;2022-11-23T15:23:03;10.60;99.90
54898;DHT22;40800;52.704;6.398;2022-11-23T15:25:30;10.40;99.90
54898;DHT22;40800;52.704;6.398;2022-11-23T15:27:56;10.50;99.90
54898;DHT22;40800;52.704;6.398;2022-11-23T15:30:27;10.20;99.90
54898;DHT22;40800;52.704;6.398;2022-11-23T15:33:02;10.20;99.90
54898;DHT22;40800;52.704;6.398;2022-11-23T15:35:33;10.20;99.90
54898;DHT22;40800;52.704;6.398;2022-11-23T15:38:00;10.10;99.90
54898;DHT22;40800;52.704;6.398;2022-11-23T15:40:30;9.90;99.90
54898;DHT22;40800;52.704;6.398;2022-11-23T15:42:57;10.00;99.90
54898;DHT22;40800;52.704;6.398;2022-11-23T15:48:18;9.80;99.90
54898;DHT22;40800;52.704;6.398;2022-11-23T15:50:51;9.60;99.90
54898;DHT22;40800;52.704;6.398;2022-11-23T15:53:18;9.60;99.90
54898;DHT22;40800;52.704;6.398;2022-11-23T15:55:45;9.50;99.90
54898;DHT22;40800;52.704;6.398;2022-11-23T15:58:17;9.50;99.90
54898;DHT22;40800;52.704;6.398;2022-11-23T16:00:55;9.50;99.90
54898;DHT22;40800;52.704;6.398;2022-11-23T16:06:32;9.40;99.90
54898;DHT22;40800;52.704;6.398;2022-11-23T16:08:59;9.40;99.90
54898;DHT22;40800;52.704;6.398;2022-11-23T16:11:34;9.50;99.90
54898;DHT22;40800;52.704;6.398;2022-11-23T16:14:19;9.60;99.90
54898;DHT22;40800;52.704;6.398;2022-11-23T16:17:27;9.50;99.90
54898;DHT22;40800;52.704;6.398;2022-11-23T16:19:57;9.40;99.90
54898;DHT22;40800;52.704;6.398;2022-11-23T16:22:33;9.40;99.90
54898;DHT22;40800;52.704;6.398;2022-11-23T16:25:15;9.50;99.90
54898;DHT22;40800;52.704;6.398;2022-11-23T16:27:44;9.40;99.90
54898;DHT22;40800;52.704;6.398;2022-11-23T16:30:25;9.40;99.90
54898;DHT22;40800;52.704;6.398;2022-11-23T16:32:51;9.20;99.90
54898;DHT22;40800;52.704;6.398;2022-11-23T16:35:19;9.40;99.90
54898;DHT22;40800;52.704;6.398;2022-11-23T16:37:45;9.30;99.90
54898;DHT22;40800;52.704;6.398;2022-11-23T16:40:12;9.10;99.90
54898;DHT22;40800;52.704;6.398;2022-11-23T16:42:39;9.20;99.90
54898;DHT22;40800;52.704;6.398;2022-11-23T16:45:06;9.00;99.90
54898;DHT22;40800;52.704;6.398;2022-11-23T16:47:33;9.20;99.90
54898;DHT22;40800;52.704;6.398;2022-11-23T16:49:59;9.00;99.90
54898;DHT22;40800;52.704;6.398;2022-11-23T16:52:24;9.00;99.90
54898;DHT22;40800;52.704;6.398;2022-11-23T16:54:50;9.20;99.90
54898;DHT22;40800;52.704;6.398;2022-11-23T16:57:37;9.20;99.90
54898;DHT22;40800;52.704;6.398;2022-11-23T17:00:06;9.30;99.90
54898;DHT22;40800;52.704;6.398;2022-11-23T17:02:32;8.80;99.90
54898;DHT22;40800;52.704;6.398;2022-11-23T17:04:58;8.60;99.90
54898;DHT22;40800;52.704;6.398;2022-11-23T17:07:23;8.60;99.90
54898;DHT22;40800;52.704;6.398;2022-11-23T17:09:49;8.60;99.90
54898;DHT22;40800;52.704;6.398;2022-11-23T17:12:16;8.70;99.90
54898;DHT22;40800;52.704;6.398;2022-11-23T17:14:45;8.60;99.90
54898;DHT22;40800;52.704;6.398;2022-11-23T17:17:18;8.60;99.90
54898;DHT22;40800;52.704;6.398;2022-11-23T17:19:46;8.50;99.90
54898;DHT22;40800;52.704;6.398;2022-11-23T17:22:18;8.60;99.90
54898;DHT22;40800;52.704;6.398;2022-11-23T17:24:44;8.60;99.90
54898;DHT22;40800;52.704;6.398;2022-11-23T17:27:20;8.50;99.90
54898;DHT22;40800;52.704;6.398;2022-11-23T17:29:47;8.30;99.90
54898;DHT22;40800;52.704;6.398;2022-11-23T17:32:15;8.30;99.90
54898;DHT22;40800;52.704;6.398;2022-11-23T17:34:44;8.10;99.90
54898;DHT22;40800;52.704;6.398;2022-11-23T17:37:18;8.30;99.90
54898;DHT22;40800;52.704;6.398;2022-11-23T17:39:45;8.40;99.90
54898;DHT22;40800;52.704;6.398;2022-11-23T17:42:11;8.20;99.90
54898;DHT22;40800;52.704;6.398;2022-11-23T17:44:37;8.30;99.90
54898;DHT22;40800;52.704;6.398;2022-11-23T17:47:03;8.30;99.90
54898;DHT22;40800;52.704;6.398;2022-11-23T17:49:29;8.30;99.90
54898;DHT22;40800;52.704;6.398;2022-11-23T17:51:55;8.10;99.90
54898;DHT22;40800;52.704;6.398;2022-11-23T17:54:22;8.10;99.90
54898;DHT22;40800;52.704;6.398;2022-11-23T17:56:48;8.10;99.90
54898;DHT22;40800;52.704;6.398;2022-11-23T17:59:15;8.10;99.90
54898;DHT22;40800;52.704;6.398;2022-11-23T18:01:41;8.40;99.90
54898;DHT22;40800;52.704;6.398;2022-11-23T18:04:06;8.30;99.90
54898;DHT22;40800;52.704;6.398;2022-11-23T18:06:32;8.40;99.90